sensor_id;sensor_type;location;lat;lon;timestamp;temperature;humidity
15083;DHT22;7640;53.116;6.878;2023-05-03T00:00:07;8.40;99.90
15083;DHT22;7640;53.116;6.878;2023-05-03T00:02:44;8.40;99.90
15083;DHT22;7640;53.116;6.878;2023-05-03T00:05:19;8.40;99.90
15083;DHT22;7640;53.116;6.878;2023-05-03T00:07:47;8.40;99.90
15083;DHT22;7640;53.116;6.878;2023-05-03T00:10:18;8.40;99.90
15083;DHT22;7640;53.116;6.878;2023-05-03T00:12:48;8.40;99.90
15083;DHT22;7640;53.116;6.878;2023-05-03T00:15:17;8.40;99.90
15083;DHT22;7640;53.116;6.878;2023-05-03T00:17:46;8.40;99.90
15083;DHT22;7640;53.116;6.878;2023-05-03T00:20:15;8.30;99.90
15083;DHT22;7640;53.116;6.878;2023-05-03T00:22:45;8.30;99.90
15083;DHT22;7640;53.116;6.878;2023-05-03T00:25:13;8.30;99.90
15083;DHT22;7640;53.116;6.878;2023-05-03T00:28:05;8.30;99.90
15083;DHT22;7640;53.116;6.878;2023-05-03T00:30:34;8.40;99.90
15083;DHT22;7640;53.116;6.878;2023-05-03T00:33:03;8.40;99.90
15083;DHT22;7640;53.116;6.878;2023-05-03T00:35:32;8.40;99.90
15083;DHT22;7640;53.116;6.878;2023-05-03T00:38:01;8.40;99.90
15083;DHT22;7640;53.116;6.878;2023-05-03T00:40:30;8.50;99.90
15083;DHT22;7640;53.116;6.878;2023-05-03T00:42:58;8.50;99.90
15083;DHT22;7640;53.116;6.878;2023-05-03T00:45:30;8.50;99.90
15083;DHT22;7640;53.116;6.878;2023-05-03T00:48:00;8.60;99.90
15083;DHT22;7640;53.116;6.878;2023-05-03T00:50:29;8.60;99.90
15083;DHT22;7640;53.116;6.878;2023-05-03T00:52:58;8.60;99.90
15083;DHT22;7640;53.116;6.878;2023-05-03T00:55:30;8.60;99.90
15083;DHT22;7640;53.116;6.878;2023-05-03T00:58:03;8.60;99.90
15083;DHT22;7640;53.116;6.878;2023-05-03T01:00:36;8.70;99.90
15083;DHT22;7640;53.116;6.878;2023-05-03T01:03:05;8.70;99.90
15083;DHT22;7640;53.116;6.878;2023-05-03T01:05:42;8.70;99.90
15083;DHT22;7640;53.116;6.878;2023-05-03T01:08:23;8.70;99.90
15083;DHT22;7640;53.116;6.878;2023-05-03T01:11:02;8.60;99.90
15083;DHT22;7640;53.116;6.878;2023-05-03T01:13:40;8.70;99.90
15083;DHT22;7640;53.116;6.878;2023-05-03T01:16:17;8.70;99.90
15083;DHT22;7640;53.116;6.878;2023-05-03T01:18:51;8.70;99.90
15083;DHT22;7640;53.116;6.878;2023-05-03T01:21:24;8.70;99.90
15083;DHT22;7640;53.116;6.878;2023-05-03T01:23:56;8.70;99.90
15083;DHT22;7640;53.116;6.878;2023-05-03T01:26:29;8.80;99.90
15083;DHT22;7640;53.116;6.878;2023-05-03T01:28:59;8.80;99.90
15083;DHT22;7640;53.116;6.878;2023-05-03T01:31:31;8.80;99.90
15083;DHT22;7640;53.116;6.878;2023-05-03T01:34:17;8.80;99.90
15083;DHT22;7640;53.116;6.878;2023-05-03T01:36:57;8.80;99.90
15083;DHT22;7640;53.116;6.878;2023-05-03T01:39:34;8.70;99.90
15083;DHT22;7640;53.116;6.878;2023-05-03T01:42:07;8.70;99.90
15083;DHT22;7640;53.116;6.878;2023-05-03T01:44:36;8.70;99.90
15083;DHT22;7640;53.116;6.878;2023-05-03T01:47:06;8.70;99.90
15083;DHT22;7640;53.116;6.878;2023-05-03T01:49:35;8.70;99.90
15083;DHT22;7640;53.116;6.878;2023-05-03T01:52:04;8.70;99.90
15083;DHT22;7640;53.116;6.878;2023-05-03T01:54:33;8.70;99.90
15083;DHT22;7640;53.116;6.878;2023-05-03T01:57:01;8.70;99.90
15083;DHT22;7640;53.116;6.878;2023-05-03T01:59:31;8.70;99.90
15083;DHT22;7640;53.116;6.878;2023-05-03T02:02:00;8.70;99.90
15083;DHT22;7640;53.116;6.878;2023-05-03T02:04:28;8.70;99.90
15083;DHT22;7640;53.116;6.878;2023-05-03T02:06:57;8.70;99.90
15083;DHT22;7640;53.116;6.878;2023-05-03T02:09:25;8.70;99.90
15083;DHT22;7640;53.116;6.878;2023-05-03T02:11:54;8.70;99.90
15083;DHT22;7640;53.116;6.878;2023-05-03T02:14:23;8.70;99.90
15083;DHT22;7640;53.116;6.878;2023-05-03T02:16:53;8.70;99.90
15083;DHT22;7640;53.116;6.878;2023-05-03T02:19:22;8.70;99.90
15083;DHT22;7640;53.116;6.878;2023-05-03T02:21:51;8.60;99.90
15083;DHT22;7640;53.116;6.878;2023-05-03T02:24:19;8.60;99.90
15083;DHT22;7640;53.116;6.878;2023-05-03T02:26:49;8.60;99.90
15083;DHT22;7640;53.116;6.878;2023-05-03T02:29:18;8.60;99.90
15083;DHT22;7640;53.116;6.878;2023-05-03T02:31:47;8.60;99.90
15083;DHT22;7640;53.116;6.878;2023-05-03T02:34:22;8.60;99.90
15083;DHT22;7640;53.116;6.878;2023-05-03T02:36:56;8.60;99.90
15083;DHT22;7640;53.116;6.878;2023-05-03T02:39:24;8.60;99.90
15083;DHT22;7640;53.116;6.878;2023-05-03T02:41:53;8.60;99.90
15083;DHT22;7640;53.116;6.878;2023-05-03T02:44:21;8.70;99.90
15083;DHT22;7640;53.116;6.878;2023-05-03T02:46:51;8.70;99.90
15083;DHT22;7640;53.116;6.878;2023-05-03T02:49:22;8.70;99.90
15083;DHT22;7640;53.116;6.878;2023-05-03T02:51:50;8.80;99.90
15083;DHT22;7640;53.116;6.878;2023-05-03T02:54:21;8.80;99.90
15083;DHT22;7640;53.116;6.878;2023-05-03T02:56:49;8.80;99.90
15083;DHT22;7640;53.116;6.878;2023-05-03T02:59:18;8.80;99.90
15083;DHT22;7640;53.116;6.878;2023-05-03T03:01:47;8.90;99.90
15083;DHT22;7640;53.116;6.878;2023-05-03T03:04:17;8.90;99.90
15083;DHT22;7640;53.116;6.878;2023-05-03T03:06:48;8.90;99.90
15083;DHT22;7640;53.116;6.878;2023-05-03T03:09:19;9.00;99.90
15083;DHT22;7640;53.116;6.878;2023-05-03T03:11:50;9.00;99.90
15083;DHT22;7640;53.116;6.878;2023-05-03T03:14:18;9.00;99.90
15083;DHT22;7640;53.116;6.878;2023-05-03T03:16:50;9.00;99.90
15083;DHT22;7640;53.116;6.878;2023-05-03T03:19:19;9.00;99.90
15083;DHT22;7640;53.116;6.878;2023-05-03T03:21:51;9.00;99.90
15083;DHT22;7640;53.116;6.878;2023-05-03T03:24:19;9.00;99.90
15083;DHT22;7640;53.116;6.878;2023-05-03T03:26:48;9.00;99.90
15083;DHT22;7640;53.116;6.878;2023-05-03T03:29:17;9.10;99.90
15083;DHT22;7640;53.116;6.878;2023-05-03T03:31:45;9.10;99.90
15083;DHT22;7640;53.116;6.878;2023-05-03T03:34:14;9.10;99.90
15083;DHT22;7640;53.116;6.878;2023-05-03T03:36:42;9.10;99.90
15083;DHT22;7640;53.116;6.878;2023-05-03T03:39:12;9.20;99.90
15083;DHT22;7640;53.116;6.878;2023-05-03T03:41:41;9.10;99.90
15083;DHT22;7640;53.116;6.878;2023-05-03T03:44:09;9.10;99.90
15083;DHT22;7640;53.116;6.878;2023-05-03T03:46:38;9.10;99.90
15083;DHT22;7640;53.116;6.878;2023-05-03T03:49:07;9.00;99.90
15083;DHT22;7640;53.116;6.878;2023-05-03T03:51:36;9.00;99.90
15083;DHT22;7640;53.116;6.878;2023-05-03T03:54:05;9.00;99.90
15083;DHT22;7640;53.116;6.878;2023-05-03T03:56:35;9.00;99.90
15083;DHT22;7640;53.116;6.878;2023-05-03T03:59:05;9.00;99.90
15083;DHT22;7640;53.116;6.878;2023-05-03T04:01:33;9.00;99.90
15083;DHT22;7640;53.116;6.878;2023-05-03T04:04:03;8.90;99.90
15083;DHT22;7640;53.116;6.878;2023-05-03T04:06:32;8.90;99.90
15083;DHT22;7640;53.116;6.878;2023-05-03T04:09:00;8.90;99.90
15083;DHT22;7640;53.116;6.878;2023-05-03T04:11:30;8.90;99.90
15083;DHT22;7640;53.116;6.878;2023-05-03T04:14:01;8.90;99.90
15083;DHT22;7640;53.116;6.878;2023-05-03T04:16:30;8.80;99.90
15083;DHT22;7640;53.116;6.878;2023-05-03T04:18:59;8.80;99.90
15083;DHT22;7640;53.116;6.878;2023-05-03T04:21:28;8.70;99.90
15083;DHT22;7640;53.116;6.878;2023-05-03T04:23:57;8.70;99.90
15083;DHT22;7640;53.116;6.878;2023-05-03T04:26:26;8.70;99.90
15083;DHT22;7640;53.116;6.878;2023-05-03T04:28:58;8.60;99.90
15083;DHT22;7640;53.116;6.878;2023-05-03T04:31:28;8.60;99.90
15083;DHT22;7640;53.116;6.878;2023-05-03T04:33:56;8.50;99.90
15083;DHT22;7640;53.116;6.878;2023-05-03T04:36:25;8.50;99.90
15083;DHT22;7640;53.116;6.878;2023-05-03T04:38:56;8.50;99.90
15083;DHT22;7640;53.116;6.878;2023-05-03T04:41:24;8.40;99.90
15083;DHT22;7640;53.116;6.878;2023-05-03T04:43:53;8.40;99.90
15083;DHT22;7640;53.116;6.878;2023-05-03T04:46:21;8.40;99.90
15083;DHT22;7640;53.116;6.878;2023-05-03T04:48:52;8.50;99.90
15083;DHT22;7640;53.116;6.878;2023-05-03T04:51:21;8.50;99.90
15083;DHT22;7640;53.116;6.878;2023-05-03T04:53:50;8.60;99.90
15083;DHT22;7640;53.116;6.878;2023-05-03T04:56:20;8.60;99.90
15083;DHT22;7640;53.116;6.878;2023-05-03T04:58:55;8.70;99.90
15083;DHT22;7640;53.116;6.878;2023-05-03T05:01:23;8.80;99.90
15083;DHT22;7640;53.116;6.878;2023-05-03T05:03:55;8.80;99.90
15083;DHT22;7640;53.116;6.878;2023-05-03T05:06:24;8.90;99.90
15083;DHT22;7640;53.116;6.878;2023-05-03T05:08:53;9.00;99.90
15083;DHT22;7640;53.116;6.878;2023-05-03T05:11:21;9.00;99.90
15083;DHT22;7640;53.116;6.878;2023-05-03T05:13:50;9.10;99.90
15083;DHT22;7640;53.116;6.878;2023-05-03T05:16:19;9.20;99.90
15083;DHT22;7640;53.116;6.878;2023-05-03T05:18:48;9.20;99.90
15083;DHT22;7640;53.116;6.878;2023-05-03T05:21:18;9.30;99.90
15083;DHT22;7640;53.116;6.878;2023-05-03T05:23:47;9.30;99.90
15083;DHT22;7640;53.116;6.878;2023-05-03T05:26:16;9.30;99.90
15083;DHT22;7640;53.116;6.878;2023-05-03T05:28:45;9.40;99.90
15083;DHT22;7640;53.116;6.878;2023-05-03T05:31:14;9.40;99.90
15083;DHT22;7640;53.116;6.878;2023-05-03T05:33:42;9.40;99.90
15083;DHT22;7640;53.116;6.878;2023-05-03T05:36:11;9.50;99.90
15083;DHT22;7640;53.116;6.878;2023-05-03T05:38:41;9.50;99.90
15083;DHT22;7640;53.116;6.878;2023-05-03T05:41:11;9.60;99.90
15083;DHT22;7640;53.116;6.878;2023-05-03T05:43:40;9.60;99.90
15083;DHT22;7640;53.116;6.878;2023-05-03T05:46:11;9.70;99.90
15083;DHT22;7640;53.116;6.878;2023-05-03T05:48:40;9.70;99.90
15083;DHT22;7640;53.116;6.878;2023-05-03T05:51:09;9.80;99.90
15083;DHT22;7640;53.116;6.878;2023-05-03T05:53:38;9.80;99.90
15083;DHT22;7640;53.116;6.878;2023-05-03T05:56:08;9.90;99.90
15083;DHT22;7640;53.116;6.878;2023-05-03T05:58:40;9.90;99.90
15083;DHT22;7640;53.116;6.878;2023-05-03T06:01:15;10.00;99.90
15083;DHT22;7640;53.116;6.878;2023-05-03T06:03:43;10.00;99.90
15083;DHT22;7640;53.116;6.878;2023-05-03T06:06:12;10.10;99.90
15083;DHT22;7640;53.116;6.878;2023-05-03T06:08:42;10.10;99.90
15083;DHT22;7640;53.116;6.878;2023-05-03T06:11:12;10.10;99.90
15083;DHT22;7640;53.116;6.878;2023-05-03T06:13:41;10.20;99.90
15083;DHT22;7640;53.116;6.878;2023-05-03T06:16:10;10.20;99.90
15083;DHT22;7640;53.116;6.878;2023-05-03T06:18:38;10.20;99.90
15083;DHT22;7640;53.116;6.878;2023-05-03T06:21:07;10.30;99.90
15083;DHT22;7640;53.116;6.878;2023-05-03T06:23:37;10.30;99.90
15083;DHT22;7640;53.116;6.878;2023-05-03T06:26:06;10.30;99.90
15083;DHT22;7640;53.116;6.878;2023-05-03T06:28:36;10.30;99.90
15083;DHT22;7640;53.116;6.878;2023-05-03T06:31:05;10.40;99.90
15083;DHT22;7640;53.116;6.878;2023-05-03T06:33:33;10.40;99.90
15083;DHT22;7640;53.116;6.878;2023-05-03T06:36:02;10.40;99.90
15083;DHT22;7640;53.116;6.878;2023-05-03T06:38:30;10.50;99.90
15083;DHT22;7640;53.116;6.878;2023-05-03T06:40:59;10.50;99.90
15083;DHT22;7640;53.116;6.878;2023-05-03T06:43:27;10.60;99.90
15083;DHT22;7640;53.116;6.878;2023-05-03T06:45:59;10.60;99.90
15083;DHT22;7640;53.116;6.878;2023-05-03T06:48:31;10.70;99.90
15083;DHT22;7640;53.116;6.878;2023-05-03T06:51:00;10.80;99.90
15083;DHT22;7640;53.116;6.878;2023-05-03T06:53:28;10.80;99.90
15083;DHT22;7640;53.116;6.878;2023-05-03T06:55:57;10.90;99.90
15083;DHT22;7640;53.116;6.878;2023-05-03T06:58:26;11.00;99.90
15083;DHT22;7640;53.116;6.878;2023-05-03T07:00:56;11.00;99.90
15083;DHT22;7640;53.116;6.878;2023-05-03T07:03:25;11.10;99.90
15083;DHT22;7640;53.116;6.878;2023-05-03T07:05:54;11.20;99.90
15083;DHT22;7640;53.116;6.878;2023-05-03T07:08:23;11.20;99.90
15083;DHT22;7640;53.116;6.878;2023-05-03T07:10:53;11.40;99.90
15083;DHT22;7640;53.116;6.878;2023-05-03T07:13:22;11.40;99.90
15083;DHT22;7640;53.116;6.878;2023-05-03T07:15:51;11.50;99.90
15083;DHT22;7640;53.116;6.878;2023-05-03T07:18:22;11.60;99.90
15083;DHT22;7640;53.116;6.878;2023-05-03T07:20:51;11.70;99.90
15083;DHT22;7640;53.116;6.878;2023-05-03T07:23:21;11.80;99.90
15083;DHT22;7640;53.116;6.878;2023-05-03T07:25:49;11.90;99.90
15083;DHT22;7640;53.116;6.878;2023-05-03T07:28:20;11.90;99.90
15083;DHT22;7640;53.116;6.878;2023-05-03T07:30:49;12.00;99.90
15083;DHT22;7640;53.116;6.878;2023-05-03T07:33:18;12.10;99.90
15083;DHT22;7640;53.116;6.878;2023-05-03T07:35:48;12.10;99.90
15083;DHT22;7640;53.116;6.878;2023-05-03T07:38:17;12.20;99.90
15083;DHT22;7640;53.116;6.878;2023-05-03T07:40:45;12.20;99.90
15083;DHT22;7640;53.116;6.878;2023-05-03T07:43:14;12.30;99.90
15083;DHT22;7640;53.116;6.878;2023-05-03T07:45:46;12.30;99.90
15083;DHT22;7640;53.116;6.878;2023-05-03T07:48:14;12.30;99.90
15083;DHT22;7640;53.116;6.878;2023-05-03T07:50:43;12.40;99.90
15083;DHT22;7640;53.116;6.878;2023-05-03T07:53:13;12.50;99.90
15083;DHT22;7640;53.116;6.878;2023-05-03T07:55:42;12.50;99.90
15083;DHT22;7640;53.116;6.878;2023-05-03T07:58:12;12.50;99.90
15083;DHT22;7640;53.116;6.878;2023-05-03T08:00:40;12.50;99.90
15083;DHT22;7640;53.116;6.878;2023-05-03T08:03:10;12.50;99.90
15083;DHT22;7640;53.116;6.878;2023-05-03T08:05:39;12.60;99.90
15083;DHT22;7640;53.116;6.878;2023-05-03T08:08:08;12.60;99.90
15083;DHT22;7640;53.116;6.878;2023-05-03T08:10:39;12.60;99.90
15083;DHT22;7640;53.116;6.878;2023-05-03T08:13:08;12.60;99.90
15083;DHT22;7640;53.116;6.878;2023-05-03T08:15:37;12.60;99.90
15083;DHT22;7640;53.116;6.878;2023-05-03T08:18:05;12.70;99.90
15083;DHT22;7640;53.116;6.878;2023-05-03T08:20:34;12.70;99.90
15083;DHT22;7640;53.116;6.878;2023-05-03T08:23:03;12.80;99.90
15083;DHT22;7640;53.116;6.878;2023-05-03T08:25:32;12.90;99.90
15083;DHT22;7640;53.116;6.878;2023-05-03T08:28:06;13.00;99.90
15083;DHT22;7640;53.116;6.878;2023-05-03T08:30:35;13.10;99.90
15083;DHT22;7640;53.116;6.878;2023-05-03T08:33:04;13.10;99.90
15083;DHT22;7640;53.116;6.878;2023-05-03T08:35:35;13.20;99.90
15083;DHT22;7640;53.116;6.878;2023-05-03T08:38:04;13.40;99.90
15083;DHT22;7640;53.116;6.878;2023-05-03T08:40:32;13.40;99.90
15083;DHT22;7640;53.116;6.878;2023-05-03T08:43:08;13.50;99.90
15083;DHT22;7640;53.116;6.878;2023-05-03T08:45:37;13.60;99.90
15083;DHT22;7640;53.116;6.878;2023-05-03T08:48:05;13.60;99.90
15083;DHT22;7640;53.116;6.878;2023-05-03T08:50:34;13.70;99.90
15083;DHT22;7640;53.116;6.878;2023-05-03T08:53:08;13.70;99.90
15083;DHT22;7640;53.116;6.878;2023-05-03T08:55:37;13.80;99.90
15083;DHT22;7640;53.116;6.878;2023-05-03T08:58:07;13.90;99.90
15083;DHT22;7640;53.116;6.878;2023-05-03T09:00:39;13.90;99.90
15083;DHT22;7640;53.116;6.878;2023-05-03T09:03:11;13.80;99.90
15083;DHT22;7640;53.116;6.878;2023-05-03T09:05:40;13.90;99.90
15083;DHT22;7640;53.116;6.878;2023-05-03T09:08:11;13.90;99.90
15083;DHT22;7640;53.116;6.878;2023-05-03T09:10:41;13.90;99.90
15083;DHT22;7640;53.116;6.878;2023-05-03T09:13:11;13.90;99.90
15083;DHT22;7640;53.116;6.878;2023-05-03T09:15:40;13.90;99.90
15083;DHT22;7640;53.116;6.878;2023-05-03T09:18:14;13.90;99.90
15083;DHT22;7640;53.116;6.878;2023-05-03T09:20:46;14.00;99.90
15083;DHT22;7640;53.116;6.878;2023-05-03T09:23:28;14.10;99.90
15083;DHT22;7640;53.116;6.878;2023-05-03T09:26:00;14.20;99.90
15083;DHT22;7640;53.116;6.878;2023-05-03T09:28:39;14.40;99.90
15083;DHT22;7640;53.116;6.878;2023-05-03T09:31:08;14.60;99.90
15083;DHT22;7640;53.116;6.878;2023-05-03T09:33:40;14.70;99.90
15083;DHT22;7640;53.116;6.878;2023-05-03T09:36:20;14.80;99.90
15083;DHT22;7640;53.116;6.878;2023-05-03T09:38:52;15.00;99.90
15083;DHT22;7640;53.116;6.878;2023-05-03T09:41:27;15.10;99.90
15083;DHT22;7640;53.116;6.878;2023-05-03T09:43:57;15.10;99.90
15083;DHT22;7640;53.116;6.878;2023-05-03T09:46:28;15.10;99.90
15083;DHT22;7640;53.116;6.878;2023-05-03T09:48:58;15.20;99.90
15083;DHT22;7640;53.116;6.878;2023-05-03T09:51:39;15.30;99.90
15083;DHT22;7640;53.116;6.878;2023-05-03T09:54:09;15.30;99.90
15083;DHT22;7640;53.116;6.878;2023-05-03T09:56:38;15.40;99.90
15083;DHT22;7640;53.116;6.878;2023-05-03T09:59:08;15.40;99.90
15083;DHT22;7640;53.116;6.878;2023-05-03T10:01:38;15.40;99.90
15083;DHT22;7640;53.116;6.878;2023-05-03T10:04:07;15.50;99.90
15083;DHT22;7640;53.116;6.878;2023-05-03T10:06:39;15.60;99.90
15083;DHT22;7640;53.116;6.878;2023-05-03T10:09:17;15.70;99.90
15083;DHT22;7640;53.116;6.878;2023-05-03T10:11:51;15.90;99.90
15083;DHT22;7640;53.116;6.878;2023-05-03T10:14:22;15.90;99.90
15083;DHT22;7640;53.116;6.878;2023-05-03T10:16:57;16.00;99.90
15083;DHT22;7640;53.116;6.878;2023-05-03T10:19:32;15.90;99.90
15083;DHT22;7640;53.116;6.878;2023-05-03T10:22:10;15.90;99.90
15083;DHT22;7640;53.116;6.878;2023-05-03T10:25:06;15.90;99.90
15083;DHT22;7640;53.116;6.878;2023-05-03T10:27:40;16.10;99.90
15083;DHT22;7640;53.116;6.878;2023-05-03T10:30:28;16.20;99.90
15083;DHT22;7640;53.116;6.878;2023-05-03T10:32:59;16.40;99.90
15083;DHT22;7640;53.116;6.878;2023-05-03T10:35:58;16.60;99.90
15083;DHT22;7640;53.116;6.878;2023-05-03T10:38:28;16.80;99.90
15083;DHT22;7640;53.116;6.878;2023-05-03T10:40:58;16.80;99.90
15083;DHT22;7640;53.116;6.878;2023-05-03T10:43:43;16.80;99.90
15083;DHT22;7640;53.116;6.878;2023-05-03T10:46:33;16.80;99.90
15083;DHT22;7640;53.116;6.878;2023-05-03T10:49:16;16.80;99.90
15083;DHT22;7640;53.116;6.878;2023-05-03T10:51:47;16.80;99.90
15083;DHT22;7640;53.116;6.878;2023-05-03T10:54:15;16.80;99.90
15083;DHT22;7640;53.116;6.878;2023-05-03T10:56:54;16.80;99.90
15083;DHT22;7640;53.116;6.878;2023-05-03T10:59:23;16.80;99.90
15083;DHT22;7640;53.116;6.878;2023-05-03T11:01:56;16.70;99.90
15083;DHT22;7640;53.116;6.878;2023-05-03T11:04:37;16.80;99.90
15083;DHT22;7640;53.116;6.878;2023-05-03T11:07:08;16.80;99.90
15083;DHT22;7640;53.116;6.878;2023-05-03T11:09:37;16.90;99.90
15083;DHT22;7640;53.116;6.878;2023-05-03T11:12:06;17.00;99.90
15083;DHT22;7640;53.116;6.878;2023-05-03T11:14:35;17.10;99.90
15083;DHT22;7640;53.116;6.878;2023-05-03T11:17:07;17.20;99.90
15083;DHT22;7640;53.116;6.878;2023-05-03T11:19:36;17.50;99.90
15083;DHT22;7640;53.116;6.878;2023-05-03T11:22:07;17.80;99.90
15083;DHT22;7640;53.116;6.878;2023-05-03T11:24:36;18.10;99.90
15083;DHT22;7640;53.116;6.878;2023-05-03T11:27:04;18.40;99.90
15083;DHT22;7640;53.116;6.878;2023-05-03T11:29:34;18.80;99.80
15083;DHT22;7640;53.116;6.878;2023-05-03T11:32:08;19.10;99.00
15083;DHT22;7640;53.116;6.878;2023-05-03T11:34:37;19.30;98.20
15083;DHT22;7640;53.116;6.878;2023-05-03T11:37:07;19.60;98.10
15083;DHT22;7640;53.116;6.878;2023-05-03T11:39:36;19.80;97.60
15083;DHT22;7640;53.116;6.878;2023-05-03T11:42:05;20.00;97.10
15083;DHT22;7640;53.116;6.878;2023-05-03T11:44:34;20.30;96.60
15083;DHT22;7640;53.116;6.878;2023-05-03T11:47:04;20.40;95.90
15083;DHT22;7640;53.116;6.878;2023-05-03T11:49:34;20.40;96.20
15083;DHT22;7640;53.116;6.878;2023-05-03T11:52:03;20.50;95.30
15083;DHT22;7640;53.116;6.878;2023-05-03T11:54:32;20.50;94.90
15083;DHT22;7640;53.116;6.878;2023-05-03T11:57:11;20.50;95.20
15083;DHT22;7640;53.116;6.878;2023-05-03T11:59:41;20.70;94.80
15083;DHT22;7640;53.116;6.878;2023-05-03T12:02:12;20.70;94.50
15083;DHT22;7640;53.116;6.878;2023-05-03T12:04:42;20.60;94.00
15083;DHT22;7640;53.116;6.878;2023-05-03T12:07:12;20.60;94.50
15083;DHT22;7640;53.116;6.878;2023-05-03T12:09:46;20.90;95.00
15083;DHT22;7640;53.116;6.878;2023-05-03T12:12:35;21.30;94.50
15083;DHT22;7640;53.116;6.878;2023-05-03T12:15:13;21.60;93.20
15083;DHT22;7640;53.116;6.878;2023-05-03T12:17:43;21.80;92.90
15083;DHT22;7640;53.116;6.878;2023-05-03T12:20:18;21.90;93.10
15083;DHT22;7640;53.116;6.878;2023-05-03T12:22:52;22.20;92.30
15083;DHT22;7640;53.116;6.878;2023-05-03T12:25:25;22.50;92.80
15083;DHT22;7640;53.116;6.878;2023-05-03T12:28:01;22.90;91.90
15083;DHT22;7640;53.116;6.878;2023-05-03T12:30:46;23.10;91.30
15083;DHT22;7640;53.116;6.878;2023-05-03T12:33:19;23.10;91.00
15083;DHT22;7640;53.116;6.878;2023-05-03T12:35:56;22.90;91.10
15083;DHT22;7640;53.116;6.878;2023-05-03T12:38:25;22.70;91.00
15083;DHT22;7640;53.116;6.878;2023-05-03T12:40:57;22.60;90.90
15083;DHT22;7640;53.116;6.878;2023-05-03T12:43:25;22.20;91.00
15083;DHT22;7640;53.116;6.878;2023-05-03T12:45:55;22.00;91.10
15083;DHT22;7640;53.116;6.878;2023-05-03T12:48:44;21.70;91.10
15083;DHT22;7640;53.116;6.878;2023-05-03T12:51:15;21.50;91.50
15083;DHT22;7640;53.116;6.878;2023-05-03T12:53:51;21.60;91.70
15083;DHT22;7640;53.116;6.878;2023-05-03T12:56:21;21.60;92.10
15083;DHT22;7640;53.116;6.878;2023-05-03T12:58:51;21.70;91.70
15083;DHT22;7640;53.116;6.878;2023-05-03T13:01:23;21.70;91.70
15083;DHT22;7640;53.116;6.878;2023-05-03T13:03:55;21.90;91.60
15083;DHT22;7640;53.116;6.878;2023-05-03T13:06:44;22.30;90.80
15083;DHT22;7640;53.116;6.878;2023-05-03T13:09:24;22.80;90.80
15083;DHT22;7640;53.116;6.878;2023-05-03T13:12:13;23.20;90.80
15083;DHT22;7640;53.116;6.878;2023-05-03T13:14:44;23.60;90.00
15083;DHT22;7640;53.116;6.878;2023-05-03T13:17:13;24.00;90.30
15083;DHT22;7640;53.116;6.878;2023-05-03T13:19:42;24.30;88.40
15083;DHT22;7640;53.116;6.878;2023-05-03T13:22:14;24.30;87.20
15083;DHT22;7640;53.116;6.878;2023-05-03T13:24:44;24.20;85.00
15083;DHT22;7640;53.116;6.878;2023-05-03T13:27:13;24.20;86.80
15083;DHT22;7640;53.116;6.878;2023-05-03T13:29:44;24.50;88.30
15083;DHT22;7640;53.116;6.878;2023-05-03T13:32:15;24.80;85.60
15083;DHT22;7640;53.116;6.878;2023-05-03T13:34:44;24.80;85.10
15083;DHT22;7640;53.116;6.878;2023-05-03T13:37:14;24.70;85.00
15083;DHT22;7640;53.116;6.878;2023-05-03T13:39:44;24.60;84.40
15083;DHT22;7640;53.116;6.878;2023-05-03T13:42:13;24.60;85.00
15083;DHT22;7640;53.116;6.878;2023-05-03T13:44:44;24.80;83.80
15083;DHT22;7640;53.116;6.878;2023-05-03T13:47:13;25.10;83.70
15083;DHT22;7640;53.116;6.878;2023-05-03T13:49:42;25.40;83.80
15083;DHT22;7640;53.116;6.878;2023-05-03T13:52:11;25.80;83.50
15083;DHT22;7640;53.116;6.878;2023-05-03T13:54:40;26.00;82.80
15083;DHT22;7640;53.116;6.878;2023-05-03T13:57:09;26.20;81.60
15083;DHT22;7640;53.116;6.878;2023-05-03T13:59:37;26.40;80.80
15083;DHT22;7640;53.116;6.878;2023-05-03T14:02:07;26.70;80.60
15083;DHT22;7640;53.116;6.878;2023-05-03T14:04:36;26.80;79.10
15083;DHT22;7640;53.116;6.878;2023-05-03T14:07:05;26.90;78.40
15083;DHT22;7640;53.116;6.878;2023-05-03T14:09:34;27.20;78.50
15083;DHT22;7640;53.116;6.878;2023-05-03T14:12:07;27.60;77.40
15083;DHT22;7640;53.116;6.878;2023-05-03T14:14:35;27.90;76.90
15083;DHT22;7640;53.116;6.878;2023-05-03T14:17:04;28.00;75.20
15083;DHT22;7640;53.116;6.878;2023-05-03T14:19:37;28.10;74.80
15083;DHT22;7640;53.116;6.878;2023-05-03T14:22:05;28.10;74.00
15083;DHT22;7640;53.116;6.878;2023-05-03T14:24:34;28.00;72.60
15083;DHT22;7640;53.116;6.878;2023-05-03T14:27:03;27.90;71.70
15083;DHT22;7640;53.116;6.878;2023-05-03T14:29:34;27.80;72.10
15083;DHT22;7640;53.116;6.878;2023-05-03T14:32:05;27.90;73.20
15083;DHT22;7640;53.116;6.878;2023-05-03T14:34:34;27.90;72.80
15083;DHT22;7640;53.116;6.878;2023-05-03T14:37:03;27.90;71.20
15083;DHT22;7640;53.116;6.878;2023-05-03T14:39:34;27.70;70.60
15083;DHT22;7640;53.116;6.878;2023-05-03T14:42:18;27.80;70.80
15083;DHT22;7640;53.116;6.878;2023-05-03T14:44:48;28.00;71.50
15083;DHT22;7640;53.116;6.878;2023-05-03T14:47:17;28.30;70.30
15083;DHT22;7640;53.116;6.878;2023-05-03T14:49:45;28.40;70.30
15083;DHT22;7640;53.116;6.878;2023-05-03T14:52:14;28.60;70.10
15083;DHT22;7640;53.116;6.878;2023-05-03T14:54:43;28.80;68.50
15083;DHT22;7640;53.116;6.878;2023-05-03T14:57:11;29.00;68.40
15083;DHT22;7640;53.116;6.878;2023-05-03T14:59:40;29.30;68.20
15083;DHT22;7640;53.116;6.878;2023-05-03T15:02:10;29.50;67.60
15083;DHT22;7640;53.116;6.878;2023-05-03T15:04:39;29.60;67.30
15083;DHT22;7640;53.116;6.878;2023-05-03T15:07:08;29.60;67.50
15083;DHT22;7640;53.116;6.878;2023-05-03T15:09:37;29.80;66.90
15083;DHT22;7640;53.116;6.878;2023-05-03T15:12:06;30.10;66.00
15083;DHT22;7640;53.116;6.878;2023-05-03T15:14:35;30.10;65.10
15083;DHT22;7640;53.116;6.878;2023-05-03T15:17:05;30.10;65.40
15083;DHT22;7640;53.116;6.878;2023-05-03T15:19:35;30.30;65.70
15083;DHT22;7640;53.116;6.878;2023-05-03T15:22:05;30.40;64.90
15083;DHT22;7640;53.116;6.878;2023-05-03T15:24:34;30.50;64.60
15083;DHT22;7640;53.116;6.878;2023-05-03T15:27:02;30.60;64.50
15083;DHT22;7640;53.116;6.878;2023-05-03T15:29:32;30.70;63.80
15083;DHT22;7640;53.116;6.878;2023-05-03T15:32:01;30.70;64.20
15083;DHT22;7640;53.116;6.878;2023-05-03T15:34:29;30.80;64.10
15083;DHT22;7640;53.116;6.878;2023-05-03T15:37:00;30.90;62.50
15083;DHT22;7640;53.116;6.878;2023-05-03T15:39:29;30.90;63.70
15083;DHT22;7640;53.116;6.878;2023-05-03T15:41:59;31.00;63.40
15083;DHT22;7640;53.116;6.878;2023-05-03T15:44:34;31.20;62.20
15083;DHT22;7640;53.116;6.878;2023-05-03T15:47:02;31.20;61.70
15083;DHT22;7640;53.116;6.878;2023-05-03T15:49:32;31.20;61.30
15083;DHT22;7640;53.116;6.878;2023-05-03T15:52:02;30.80;61.10
15083;DHT22;7640;53.116;6.878;2023-05-03T15:54:34;30.70;61.90
15083;DHT22;7640;53.116;6.878;2023-05-03T15:57:03;30.70;62.00
15083;DHT22;7640;53.116;6.878;2023-05-03T15:59:33;30.70;61.50
15083;DHT22;7640;53.116;6.878;2023-05-03T16:02:02;30.80;61.20
15083;DHT22;7640;53.116;6.878;2023-05-03T16:04:31;30.90;61.40
15083;DHT22;7640;53.116;6.878;2023-05-03T16:07:05;31.00;61.10
15083;DHT22;7640;53.116;6.878;2023-05-03T16:09:34;31.20;61.00
15083;DHT22;7640;53.116;6.878;2023-05-03T16:12:03;31.30;60.40
15083;DHT22;7640;53.116;6.878;2023-05-03T16:14:33;31.30;60.50